Time;durP1;ratioP1;P1;durP2;ratioP2;P2;SDS_P1;SDS_P2;PMS_P1;PMS_P2;Temp;Humidity;BMP_temperature;BMP_pressure;BME280_temperature;BME280_humidity;BME280_pressure;Samples;Min_cycle;Max_cycle;Signal;HPM_P1;HPM_P2
2023/08/12 00:02:08;;;;;;;15.70;13.80;;;;;;;16.96;100.00;99508.35;109558;1252;59625;-72
2023/08/12 00:04:35;;;;;;;17.20;14.80;;;;;;;16.93;100.00;99507.70;109559;1253;59109;-72
2023/08/12 00:07:01;;;;;;;19.30;17.20;;;;;;;16.91;100.00;99510.02;109542;1251;63989;-73
2023/08/12 00:09:28;;;;;;;16.30;14.60;;;;;;;16.89;100.00;99510.67;109472;1253;59659;-72
2023/08/12 00:11:54;;;;;;;17.70;15.00;;;;;;;16.87;100.00;99515.35;109524;1253;58966;-72
2023/08/12 00:14:21;;;;;;;20.30;16.60;;;;;;;16.85;100.00;99513.05;109512;1252;65843;-72
2023/08/12 00:16:47;;;;;;;18.70;16.80;;;;;;;16.84;100.00;99514.04;109579;1252;60158;-72
2023/08/12 00:19:14;;;;;;;18.20;16.20;;;;;;;16.82;100.00;99511.89;109522;1252;65277;-73
2023/08/12 00:21:40;;;;;;;21.60;19.30;;;;;;;16.80;100.00;99512.25;109536;1252;59335;-72
2023/08/12 00:24:07;;;;;;;20.40;16.80;;;;;;;16.79;100.00;99511.80;109406;1252;59019;-72
2023/08/12 00:26:34;;;;;;;20.00;17.50;;;;;;;16.78;100.00;99512.21;109575;1253;66048;-72
2023/08/12 00:29:00;;;;;;;18.90;16.80;;;;;;;16.77;100.00;99510.86;109536;1253;60284;-71
2023/08/12 00:31:27;;;;;;;21.40;17.40;;;;;;;16.76;100.00;99509.33;109486;1253;64032;-72
2023/08/12 00:33:54;;;;;;;20.80;18.00;;;;;;;16.74;100.00;99508.38;109369;1252;58978;-72
2023/08/12 00:36:20;;;;;;;21.10;17.60;;;;;;;16.73;100.00;99510.23;109495;1253;59453;-72
2023/08/12 00:38:47;;;;;;;19.30;16.70;;;;;;;16.71;100.00;99513.10;109524;1253;72457;-73
2023/08/12 00:41:13;;;;;;;19.70;16.20;;;;;;;16.68;100.00;99510.80;109522;1253;58992;-74
2023/08/12 00:43:40;;;;;;;18.00;16.10;;;;;;;16.65;100.00;99511.45;109252;1254;165043;-73
2023/08/12 00:46:06;;;;;;;18.00;16.20;;;;;;;16.62;100.00;99510.46;109485;1253;58985;-73
2023/08/12 00:48:33;;;;;;;17.40;15.60;;;;;;;16.58;100.00;99508.83;109396;1256;59127;-73
2023/08/12 00:51:00;;;;;;;17.80;15.00;;;;;;;16.50;100.00;99502.36;109560;1251;66117;-73
2023/08/12 00:53:27;;;;;;;18.30;15.40;;;;;;;16.46;100.00;99499.41;109523;1252;59236;-73
2023/08/12 00:55:54;;;;;;;17.10;15.40;;;;;;;16.41;100.00;99495.30;109551;1252;64051;-73
2023/08/12 00:58:21;;;;;;;17.00;15.10;;;;;;;16.38;100.00;99496.48;109502;1253;58998;-73
2023/08/12 01:00:47;;;;;;;15.20;13.70;;;;;;;16.37;100.00;99493.91;109526;1252;58848;-73
2023/08/12 01:03:14;;;;;;;15.90;14.00;;;;;;;16.35;100.00;99495.29;109525;1252;66086;-73
2023/08/12 01:05:42;;;;;;;16.40;14.80;;;;;;;16.32;100.00;99490.89;109551;1253;61384;-74
2023/08/12 01:08:09;;;;;;;15.60;13.90;;;;;;;16.29;100.00;99492.08;109554;1252;65300;-72
2023/08/12 01:10:37;;;;;;;15.90;13.20;;;;;;;16.23;100.00;99496.14;109522;1252;59079;-73
2023/08/12 01:13:32;;;;;;;14.50;13.00;;;;;;;16.18;100.00;99498.10;109551;1252;58968;-73
2023/08/12 01:16:04;;;;;;;17.00;15.20;;;;;;;16.14;100.00;99496.89;109586;1252;67276;-73
2023/08/12 01:18:31;;;;;;;14.80;13.50;;;;;;;16.08;100.00;99502.89;109504;1252;60247;-73
2023/08/12 01:20:58;;;;;;;15.20;13.70;;;;;;;16.04;100.00;99502.55;109522;1251;65167;-73
2023/08/12 01:23:25;;;;;;;14.50;13.00;;;;;;;16.01;100.00;99500.80;109499;1252;58981;-74
2023/08/12 01:25:52;;;;;;;15.40;14.00;;;;;;;15.99;100.00;99500.79;109254;1252;59190;-73
2023/08/12 01:28:19;;;;;;;16.60;14.80;;;;;;;15.95;100.00;99504.34;109577;1252;66152;-72
2023/08/12 01:30:45;;;;;;;16.90;14.90;;;;;;;15.90;100.00;99503.29;109510;1251;60122;-73
2023/08/12 01:33:48;;;;;;;15.60;14.00;;;;;;;15.86;100.00;99506.70;109563;1252;59158;-72
2023/08/12 01:36:18;;;;;;;15.10;13.60;;;;;;;15.80;100.00;99508.21;109313;1253;59003;-73
2023/08/12 01:38:48;;;;;;;15.90;13.30;;;;;;;15.75;100.00;99510.00;109506;1253;59021;-73
2023/08/12 01:41:16;;;;;;;15.30;13.10;;;;;;;15.72;100.00;99513.73;109535;1252;66128;-72
2023/08/12 01:43:43;;;;;;;15.20;12.90;;;;;;;15.67;100.00;99512.77;109541;1251;60190;-72
2023/08/12 01:46:10;;;;;;;14.40;12.80;;;;;;;15.64;100.00;99515.04;109511;1252;63398;-73
2023/08/12 01:48:37;;;;;;;15.20;13.70;;;;;;;15.59;100.00;99517.04;109541;1252;58948;-73
2023/08/12 01:51:03;;;;;;;13.80;12.50;;;;;;;15.53;100.00;99516.92;109605;1252;59350;-73
2023/08/12 01:53:30;;;;;;;15.70;13.40;;;;;;;15.48;100.00;99511.45;109527;1252;65294;-73
2023/08/12 01:55:56;;;;;;;14.40;12.90;;;;;;;15.43;100.00;99515.60;109493;1251;60205;-73
2023/08/12 01:58:23;;;;;;;14.40;13.00;;;;;;;15.38;100.00;99516.02;109530;1253;64038;-73
2023/08/12 02:00:49;;;;;;;15.20;13.30;;;;;;;15.32;100.00;99516.46;109562;1252;58960;-73
2023/08/12 02:03:16;;;;;;;13.90;12.10;;;;;;;15.25;100.00;99521.11;109548;1252;58999;-73
2023/08/12 02:05:43;;;;;;;13.50;12.10;;;;;;;15.18;100.00;99518.80;109597;1252;64851;-73
2023/08/12 02:08:10;;;;;;;13.80;12.40;;;;;;;15.12;100.00;99519.60;109567;1252;59023;-72
2023/08/12 02:10:36;;;;;;;13.90;12.60;;;;;;;15.07;100.00;99519.08;109503;1251;65157;-73
2023/08/12 02:13:03;;;;;;;12.70;11.60;;;;;;;15.02;100.00;99520.06;109516;1252;58997;-73
2023/08/12 02:15:30;;;;;;;13.10;11.90;;;;;;;14.96;100.00;99520.52;109532;1253;58980;-72
2023/08/12 02:17:56;;;;;;;15.00;13.50;;;;;;;14.91;100.00;99528.19;109545;1253;66034;-73
2023/08/12 02:20:23;;;;;;;15.90;14.20;;;;;;;14.88;100.00;99534.33;109507;1252;59039;-73
2023/08/12 02:22:49;;;;;;;14.20;12.80;;;;;;;14.84;100.00;99535.23;109549;1252;64085;-73
2023/08/12 02:25:16;;;;;;;14.20;12.90;;;;;;;14.79;100.00;99536.83;109530;1252;59444;-73
2023/08/12 02:27:42;;;;;;;16.70;13.50;;;;;;;14.75;100.00;99540.73;109463;1252;59018;-73
2023/08/12 02:30:10;;;;;;;16.80;12.70;;;;;;;14.69;100.00;99538.08;109550;1252;59624;-72
2023/08/12 02:32:36;;;;;;;15.70;12.40;;;;;;;14.65;100.00;99535.91;109440;1252;60174;-73
2023/08/12 02:35:03;;;;;;;14.40;12.60;;;;;;;14.61;100.00;99536.73;109560;1252;59548;-73
2023/08/12 02:37:30;;;;;;;13.30;12.00;;;;;;;14.56;100.00;99536.61;109474;1252;59029;-73
2023/08/12 02:39:56;;;;;;;14.70;13.20;;;;;;;14.52;100.00;99532.61;109516;1252;59020;-72
2023/08/12 02:42:23;;;;;;;16.20;14.50;;;;;;;14.48;100.00;99536.41;109542;1253;66102;-73
2023/08/12 02:44:50;;;;;;;14.40;12.70;;;;;;;14.45;100.00;99539.66;109506;1252;59494;-73
2023/08/12 02:47:16;;;;;;;16.40;14.70;;;;;;;14.41;100.00;99542.67;109479;1253;64021;-73
2023/08/12 02:49:43;;;;;;;14.60;13.10;;;;;;;14.34;100.00;99539.99;109501;1252;59032;-72
2023/08/12 02:52:10;;;;;;;15.30;13.50;;;;;;;14.28;100.00;99542.39;109580;1253;58950;-72
2023/08/12 02:54:36;;;;;;;14.40;12.90;;;;;;;14.23;100.00;99544.16;109558;1253;64949;-73
2023/08/12 02:57:03;;;;;;;18.60;14.50;;;;;;;14.19;100.00;99544.48;109548;1252;61292;-73
2023/08/12 02:59:30;;;;;;;16.50;14.50;;;;;;;14.14;100.00;99547.14;109521;1252;62930;-72
2023/08/12 03:01:56;;;;;;;16.60;15.00;;;;;;;14.12;100.00;99546.09;109274;1254;58974;-73
2023/08/12 03:04:23;;;;;;;15.50;13.80;;;;;;;14.10;100.00;99543.04;109545;1252;59213;-73
2023/08/12 03:06:49;;;;;;;15.90;14.10;;;;;;;14.06;100.00;99540.95;109544;1252;66007;-73
2023/08/12 03:09:18;;;;;;;16.10;13.70;;;;;;;14.02;100.00;99540.87;109577;1252;60201;-73
2023/08/12 03:11:44;;;;;;;15.50;13.40;;;;;;;13.98;100.00;99540.26;109528;1251;63054;-72
2023/08/12 03:14:11;;;;;;;15.20;13.70;;;;;;;13.93;100.00;99538.30;109495;1252;59006;-73
2023/08/12 03:16:38;;;;;;;16.90;15.20;;;;;;;13.87;100.00;99537.89;109579;1251;58824;-73
2023/08/12 03:19:04;;;;;;;18.00;16.10;;;;;;;13.84;100.00;99534.45;109545;1253;64534;-73
2023/08/12 03:21:31;;;;;;;17.00;15.10;;;;;;;13.83;100.00;99533.45;109560;1251;60227;-72
2023/08/12 03:23:57;;;;;;;16.60;14.70;;;;;;;13.80;100.00;99532.07;109482;1253;64099;-72
2023/08/12 03:26:24;;;;;;;17.10;15.50;;;;;;;13.78;100.00;99535.98;109550;1252;58935;-73
2023/08/12 03:28:50;;;;;;;19.00;17.10;;;;;;;13.77;100.00;99531.63;109541;1253;59031;-73
2023/08/12 03:31:17;;;;;;;16.60;14.90;;;;;;;13.76;100.00;99532.73;109333;1252;66146;-73
2023/08/12 03:33:44;;;;;;;17.00;15.40;;;;;;;13.75;100.00;99532.27;109571;1252;61287;-73
2023/08/12 03:36:10;;;;;;;17.60;15.90;;;;;;;13.75;100.00;99531.19;109491;1251;64106;-73
2023/08/12 03:38:37;;;;;;;17.20;15.40;;;;;;;13.74;100.00;99524.65;109562;1252;59433;-73
2023/08/12 03:41:03;;;;;;;17.00;15.30;;;;;;;13.72;100.00;99525.16;109529;1252;59003;-73
2023/08/12 03:43:30;;;;;;;14.70;13.30;;;;;;;13.73;100.00;99528.13;109546;1253;64880;-73
2023/08/12 03:45:56;;;;;;;15.60;14.10;;;;;;;13.75;100.00;99528.02;109547;1252;60234;-73
2023/08/12 03:48:23;;;;;;;17.20;15.50;;;;;;;13.77;100.00;99529.45;109530;1252;64016;-73
2023/08/12 03:50:50;;;;;;;15.90;13.90;;;;;;;13.82;100.00;99528.54;109528;1252;58960;-72
2023/08/12 03:53:17;;;;;;;14.60;13.10;;;;;;;13.87;100.00;99531.97;109365;1253;59085;-73
2023/08/12 03:55:44;;;;;;;14.00;12.50;;;;;;;14.12;100.00;99532.27;109503;1252;66072;-73
2023/08/12 03:58:10;;;;;;;13.80;12.60;;;;;;;14.73;100.00;99533.52;109555;1252;58974;-73
2023/08/12 04:00:41;;;;;;;12.40;11.00;;;;;;;15.37;100.00;99537.95;109571;1252;65340;-72
2023/08/12 04:03:09;;;;;;;11.90;10.70;;;;;;;15.98;100.00;99537.92;109536;1252;58954;-73
2023/08/12 04:05:35;;;;;;;13.70;11.40;;;;;;;16.51;100.00;99535.60;109523;1252;59058;-72
2023/08/12 04:08:02;;;;;;;12.40;11.20;;;;;;;17.01;100.00;99536.43;109524;1252;64549;-72
2023/08/12 04:10:30;;;;;;;12.40;11.20;;;;;;;17.45;100.00;99536.50;109509;1252;61309;-72
2023/08/12 04:12:56;;;;;;;12.50;10.40;;;;;;;17.91;100.00;99531.69;109485;1251;64897;-72
2023/08/12 04:15:23;;;;;;;12.10;10.40;;;;;;;18.38;100.00;99529.33;109489;1252;59040;-73
2023/08/12 04:17:49;;;;;;;12.70;11.40;;;;;;;18.82;100.00;99531.60;109548;1251;58861;-72
2023/08/12 04:20:16;;;;;;;12.60;11.40;;;;;;;19.27;100.00;99532.59;109475;1252;64883;-73
2023/08/12 04:22:43;;;;;;;12.40;11.20;;;;;;;19.69;100.00;99534.23;109564;1251;59039;-74
2023/08/12 04:25:09;;;;;;;13.40;12.10;;;;;;;20.07;100.00;99535.19;109572;1252;64081;-73
2023/08/12 04:27:36;;;;;;;13.20;11.50;;;;;;;20.48;100.00;99540.71;109558;1252;59061;-73
2023/08/12 04:30:03;;;;;;;13.70;12.30;;;;;;;20.86;100.00;99538.61;109529;1253;58980;-73
2023/08/12 04:32:30;;;;;;;13.00;11.90;;;;;;;21.24;100.00;99537.77;109389;1252;64927;-72
2023/08/12 04:34:56;;;;;;;12.60;11.30;;;;;;;21.57;100.00;99535.34;109570;1251;58915;-72
2023/08/12 04:37:24;;;;;;;14.20;12.90;;;;;;;21.91;100.00;99533.73;109498;1252;62865;-73
2023/08/12 04:39:50;;;;;;;13.50;12.30;;;;;;;22.24;100.00;99530.61;109506;1252;58953;-73
2023/08/12 04:42:17;;;;;;;13.30;11.90;;;;;;;22.39;100.00;99530.64;109576;1252;59231;-73
2023/08/12 04:44:43;;;;;;;12.60;11.50;;;;;;;22.56;100.00;99530.58;109531;1253;64961;-73
2023/08/12 04:47:10;;;;;;;13.00;11.90;;;;;;;22.83;100.00;99537.64;109537;1252;61263;-73
2023/08/12 04:49:36;;;;;;;13.00;11.70;;;;;;;23.03;100.00;99538.02;109524;1252;62826;-73
2023/08/12 04:52:03;;;;;;;13.70;12.50;;;;;;;23.14;100.00;99538.55;109562;1252;58947;-72
2023/08/12 04:54:30;;;;;;;14.50;13.00;;;;;;;23.39;100.00;99541.75;109524;1252;59028;-72
2023/08/12 04:56:56;;;;;;;15.80;14.20;;;;;;;23.64;100.00;99541.14;109560;1252;66067;-72
2023/08/12 04:59:23;;;;;;;14.90;13.50;;;;;;;23.88;98.56;99537.71;109565;1252;60222;-72
2023/08/12 05:01:49;;;;;;;13.80;12.60;;;;;;;24.11;96.72;99534.08;109544;1251;65307;-72
2023/08/12 05:04:16;;;;;;;13.60;12.40;;;;;;;24.31;94.71;99532.77;109537;1252;59068;-72
2023/08/12 05:06:42;;;;;;;13.20;12.10;;;;;;;24.49;92.64;99535.40;109567;1251;59365;-73
2023/08/12 05:09:09;;;;;;;12.80;11.50;;;;;;;24.65;90.82;99535.77;109330;1252;66123;-73
2023/08/12 05:11:35;;;;;;;12.30;11.20;;;;;;;24.76;89.16;99535.38;109616;1250;60934;-73
2023/08/12 05:14:02;;;;;;;11.30;10.30;;;;;;;24.93;87.91;99536.24;109524;1251;64061;-74
2023/08/12 05:16:29;;;;;;;11.10;9.90;;;;;;;25.20;86.72;99536.21;109663;1251;59080;-72
2023/08/12 05:18:55;;;;;;;11.20;10.20;;;;;;;25.46;85.25;99531.83;109626;1251;58874;-74
2023/08/12 05:21:22;;;;;;;11.10;10.10;;;;;;;25.58;83.44;99533.17;109569;1251;66015;-71
2023/08/12 05:23:49;;;;;;;12.50;11.30;;;;;;;25.73;82.73;99533.18;109656;1251;60129;-71
2023/08/12 05:26:15;;;;;;;11.30;10.30;;;;;;;25.91;80.74;99532.66;109579;1251;63996;-72
2023/08/12 05:28:42;;;;;;;11.10;10.00;;;;;;;25.95;79.11;99530.96;109604;1251;59122;-71
2023/08/12 05:31:08;;;;;;;12.70;9.50;;;;;;;25.86;78.49;99528.14;109646;1251;59262;-72
2023/08/12 05:33:35;;;;;;;10.20;9.30;;;;;;;26.12;78.79;99532.35;109399;1251;64621;-72
2023/08/12 05:36:02;;;;;;;10.70;9.80;;;;;;;26.52;77.86;99537.84;109610;1251;58910;-73
2023/08/12 05:38:29;;;;;;;10.50;9.50;;;;;;;26.68;75.86;99538.06;109614;1251;64140;-73
2023/08/12 05:40:55;;;;;;;10.70;9.70;;;;;;;26.76;74.74;99534.16;109566;1251;59251;-74
2023/08/12 05:43:22;;;;;;;11.30;9.90;;;;;;;26.92;73.82;99535.46;109675;1251;59064;-73
2023/08/12 05:45:49;;;;;;;9.90;8.70;;;;;;;26.92;72.71;99536.98;109603;1251;67215;-73
2023/08/12 05:48:15;;;;;;;9.30;8.60;;;;;;;26.97;72.09;99538.83;109662;1251;59863;-73
2023/08/12 05:50:43;;;;;;;9.90;8.90;;;;;;;27.11;71.94;99534.67;109526;1251;65358;-74
2023/08/12 05:53:10;;;;;;;10.10;9.20;;;;;;;27.26;71.43;99534.16;109569;1251;59057;-72
2023/08/12 05:55:36;;;;;;;10.40;9.20;;;;;;;27.35;70.47;99533.35;109618;1251;59087;-73
2023/08/12 05:58:03;;;;;;;10.10;9.10;;;;;;;27.43;69.74;99538.90;109610;1250;64857;-73
2023/08/12 06:00:29;;;;;;;9.10;8.40;;;;;;;27.62;69.45;99537.05;109644;1255;60130;-73
2023/08/12 06:02:56;;;;;;;9.80;8.80;;;;;;;27.88;68.87;99531.22;109559;1251;64021;-73
2023/08/12 06:05:23;;;;;;;8.90;8.00;;;;;;;27.99;67.61;99534.20;109569;1251;58930;-74
2023/08/12 06:07:49;;;;;;;9.20;8.40;;;;;;;27.92;67.32;99538.42;109657;1251;58984;-73
2023/08/12 06:10:16;;;;;;;8.40;7.60;;;;;;;27.98;66.91;99531.61;109606;1250;66120;-73
2023/08/12 06:12:42;;;;;;;8.40;7.70;;;;;;;27.99;66.36;99529.56;109582;1251;59987;-73
2023/08/12 06:15:09;;;;;;;7.90;7.30;;;;;;;27.93;64.96;99528.73;109607;1251;62909;-74
2023/08/12 06:17:36;;;;;;;9.60;7.90;;;;;;;27.87;65.55;99531.34;109571;1251;59073;-73
2023/08/12 06:20:03;;;;;;;7.60;6.60;;;;;;;27.95;65.55;99530.77;109598;1251;59099;-73
2023/08/12 06:22:29;;;;;;;7.50;6.90;;;;;;;27.83;64.12;99531.85;109422;1251;67195;-73
2023/08/12 06:24:56;;;;;;;7.40;6.80;;;;;;;27.63;63.76;99532.01;109531;1251;60039;-73
2023/08/12 06:27:22;;;;;;;7.30;6.70;;;;;;;27.49;63.10;99530.85;109591;1251;65208;-73
2023/08/12 06:29:49;;;;;;;8.10;7.10;;;;;;;27.19;63.18;99532.32;109611;1251;59278;-73
2023/08/12 06:32:16;;;;;;;8.30;6.50;;;;;;;27.17;64.27;99534.20;109580;1251;59027;-73
2023/08/12 06:34:42;;;;;;;6.90;6.30;;;;;;;27.23;64.30;99539.83;109634;1251;67099;-73
2023/08/12 06:37:09;;;;;;;7.50;6.70;;;;;;;27.22;64.43;99535.23;109641;1250;59067;-73
2023/08/12 06:39:35;;;;;;;8.20;7.30;;;;;;;27.17;64.41;99533.02;109575;1251;65208;-73
2023/08/12 06:42:03;;;;;;;8.90;8.10;;;;;;;27.32;64.67;99529.46;109621;1251;58969;-74
2023/08/12 06:44:29;;;;;;;8.60;7.70;;;;;;;27.51;64.31;99529.77;109593;1251;58996;-73
2023/08/12 06:46:56;;;;;;;10.90;7.90;;;;;;;27.62;63.60;99527.03;109506;1251;64740;-72
2023/08/12 06:49:22;;;;;;;8.30;7.50;;;;;;;27.61;63.15;99523.49;109654;1251;59053;-73
2023/08/12 06:51:49;;;;;;;8.90;8.00;;;;;;;27.50;62.64;99522.17;109620;1251;64041;-73
2023/08/12 06:54:16;;;;;;;8.50;7.70;;;;;;;27.37;62.73;99522.71;109623;1251;58932;-72
2023/08/12 06:56:42;;;;;;;9.40;7.40;;;;;;;27.29;62.63;99521.77;109579;1251;58943;-72
2023/08/12 06:59:09;;;;;;;8.10;7.30;;;;;;;27.16;63.01;99519.54;109658;1250;66709;-72
2023/08/12 07:01:35;;;;;;;8.30;7.30;;;;;;;27.03;63.13;99519.24;109619;1251;59027;-74
2023/08/12 07:04:02;;;;;;;7.70;6.80;;;;;;;26.99;63.36;99515.21;109606;1251;64138;-73
2023/08/12 07:06:28;;;;;;;8.00;7.20;;;;;;;27.00;63.98;99519.42;109642;1251;58967;-73
2023/08/12 07:08:55;;;;;;;7.80;7.00;;;;;;;26.87;63.94;99515.50;109664;1251;59017;-73
2023/08/12 07:11:22;;;;;;;7.60;6.80;;;;;;;26.65;63.87;99511.50;109633;1251;66972;-72
2023/08/12 07:13:49;;;;;;;7.70;7.00;;;;;;;26.48;64.44;99510.23;109623;1250;60041;-72
2023/08/12 07:16:15;;;;;;;6.70;6.20;;;;;;;26.36;65.11;99507.13;109597;1251;63897;-73
2023/08/12 07:18:42;;;;;;;6.50;5.20;;;;;;;26.15;64.86;99509.50;109407;1251;59115;-72
2023/08/12 07:21:09;;;;;;;5.00;4.60;;;;;;;25.93;64.32;99514.59;109624;1251;58994;-72
2023/08/12 07:23:35;;;;;;;5.00;4.30;;;;;;;25.80;64.34;99512.33;109636;1251;66040;-73
2023/08/12 07:26:02;;;;;;;4.70;3.80;;;;;;;25.67;64.33;99515.44;109614;1250;59437;-73
2023/08/12 07:28:28;;;;;;;4.50;4.10;;;;;;;25.53;63.60;99515.28;109522;1251;64922;-73
2023/08/12 07:30:55;;;;;;;4.90;4.40;;;;;;;25.38;63.23;99512.83;109614;1250;58991;-73
2023/08/12 07:33:22;;;;;;;5.50;4.50;;;;;;;25.29;63.70;99510.87;109620;1251;58954;-73
2023/08/12 07:35:48;;;;;;;5.10;4.60;;;;;;;25.29;64.33;99507.43;109437;1251;66114;-73
2023/08/12 07:38:15;;;;;;;5.00;4.60;;;;;;;25.31;64.65;99504.83;109336;1251;61018;-73
2023/08/12 07:40:41;;;;;;;5.40;4.40;;;;;;;25.28;65.13;99501.59;109602;1251;64120;-73
2023/08/12 07:43:08;;;;;;;5.00;4.50;;;;;;;25.21;65.40;99497.14;109583;1251;59036;-73
2023/08/12 07:45:34;;;;;;;5.10;4.30;;;;;;;25.12;65.79;99499.83;109595;1250;58955;-73
2023/08/12 07:48:01;;;;;;;4.90;4.40;;;;;;;25.08;65.90;99494.13;109611;1251;67232;-73
2023/08/12 07:50:28;;;;;;;5.70;4.20;;;;;;;25.04;66.29;99495.19;109640;1251;59198;-72
2023/08/12 07:52:54;;;;;;;5.10;4.60;;;;;;;25.06;66.74;99491.25;109548;1251;64137;-73
2023/08/12 07:55:21;;;;;;;4.70;4.20;;;;;;;25.07;66.08;99490.64;109614;1251;58906;-73
2023/08/12 07:57:47;;;;;;;4.50;4.10;;;;;;;25.06;66.24;99489.06;109631;1251;58908;-73
2023/08/12 08:00:14;;;;;;;5.60;4.50;;;;;;;25.03;65.02;99486.54;109551;1251;64818;-73
2023/08/12 08:02:41;;;;;;;4.70;4.10;;;;;;;24.93;65.72;99488.46;109569;1251;59835;-73
2023/08/12 08:05:08;;;;;;;6.40;4.20;;;;;;;25.00;66.29;99487.23;109573;1251;62753;-73
2023/08/12 08:07:34;;;;;;;4.60;4.20;;;;;;;25.11;67.16;99484.08;109579;1251;59037;-73
2023/08/12 08:10:01;;;;;;;5.00;4.50;;;;;;;25.26;67.43;99478.17;109592;1251;58857;-72
2023/08/12 08:12:27;;;;;;;5.10;4.20;;;;;;;25.38;66.79;99478.91;109597;1251;66176;-72
2023/08/12 08:14:54;;;;;;;4.30;4.00;;;;;;;25.39;66.24;99477.45;109370;1250;69951;-73
2023/08/12 08:17:20;;;;;;;4.60;4.20;;;;;;;25.41;65.94;99473.63;109564;1251;64055;-72
2023/08/12 08:19:47;;;;;;;3.70;3.40;;;;;;;25.48;65.54;99473.14;109550;1251;59050;-73
2023/08/12 08:22:13;;;;;;;4.30;3.60;;;;;;;25.52;65.12;99476.40;109631;1251;58953;-72
2023/08/12 08:24:40;;;;;;;4.70;2.80;;;;;;;25.64;65.47;99477.23;109624;1251;64872;-73
2023/08/12 08:27:07;;;;;;;5.20;3.70;;;;;;;25.73;65.11;99481.67;109591;1251;67476;-72
2023/08/12 08:29:33;;;;;;;6.20;4.00;;;;;;;25.78;65.07;99481.88;109543;1251;71366;-73
2023/08/12 08:32:00;;;;;;;4.90;3.10;;;;;;;25.84;64.52;99485.06;109572;1251;59002;-73
2023/08/12 08:34:26;;;;;;;3.70;3.30;;;;;;;25.88;64.08;99487.89;109604;1251;59041;-72
2023/08/12 08:36:54;;;;;;;3.80;3.20;;;;;;;25.93;63.42;99486.52;109571;1251;64786;-72
2023/08/12 08:39:21;;;;;;;3.70;3.30;;;;;;;25.93;62.97;99487.87;109630;1251;59026;-72
2023/08/12 08:41:49;;;;;;;3.30;2.90;;;;;;;25.98;63.08;99487.19;109641;1251;73870;-72
2023/08/12 08:44:20;;;;;;;3.80;3.00;;;;;;;26.02;62.70;99490.01;109572;1251;58919;-72
2023/08/12 08:46:47;;;;;;;3.50;3.30;;;;;;;26.02;61.57;99488.57;109624;1251;58839;-74
2023/08/12 08:49:15;;;;;;;3.70;3.30;;;;;;;26.02;61.57;99485.42;109471;1250;64685;-73
2023/08/12 08:51:42;;;;;;;3.40;3.10;;;;;;;26.02;60.15;99484.20;109647;1251;60207;-73
2023/08/12 08:54:10;;;;;;;3.60;3.30;;;;;;;25.91;60.36;99482.09;109634;1251;62835;-73
2023/08/12 08:56:38;;;;;;;10.90;3.80;;;;;;;25.98;61.64;99482.55;109617;1251;58950;-73
2023/08/12 08:59:04;;;;;;;3.90;3.40;;;;;;;26.10;61.86;99478.63;109610;1251;58949;-73
2023/08/12 09:01:31;;;;;;;4.00;3.70;;;;;;;26.22;61.81;99479.08;109518;1250;65710;-73
2023/08/12 09:03:59;;;;;;;3.60;3.30;;;;;;;26.30;60.59;99478.46;109642;1251;59105;-73
2023/08/12 09:06:25;;;;;;;3.30;3.00;;;;;;;26.27;59.89;99480.81;109671;1251;62800;-73
2023/08/12 09:08:53;;;;;;;4.50;3.70;;;;;;;26.20;59.08;99476.27;109392;1251;59120;-73
2023/08/12 09:11:20;;;;;;;5.40;3.20;;;;;;;26.10;58.63;99474.63;109607;1250;59020;-73
2023/08/12 09:13:47;;;;;;;3.70;3.30;;;;;;;26.12;59.90;99473.66;109670;1251;65723;-73
2023/08/12 09:16:14;;;;;;;3.50;2.80;;;;;;;26.24;59.94;99469.34;109696;1251;60454;-73
2023/08/12 09:18:44;;;;;;;3.50;3.00;;;;;;;26.33;59.34;99464.30;109551;1251;62930;-73
2023/08/12 09:21:11;;;;;;;;;;;;;;;26.37;59.07;99457.29;109683;1251;58941;-73
2023/08/12 09:23:42;;;;;;;4.80;3.90;;;;;;;26.40;58.90;99460.14;109671;1251;59036;-73
2023/08/12 09:26:17;;;;;;;3.50;3.20;;;;;;;26.46;58.64;99457.52;109614;1251;64547;-73
2023/08/12 09:28:44;;;;;;;3.20;2.90;;;;;;;26.54;58.56;99454.42;109603;1251;60289;-72
2023/08/12 09:31:26;;;;;;;3.30;3.10;;;;;;;26.66;58.81;99452.83;109601;1251;65247;-72
2023/08/12 09:33:53;;;;;;;2.70;2.50;;;;;;;26.69;58.88;99444.73;109602;1251;58864;-73
2023/08/12 09:36:22;;;;;;;3.40;2.80;;;;;;;26.78;58.99;99443.34;109628;1251;61295;-73
2023/08/12 09:38:48;;;;;;;3.30;3.00;;;;;;;26.78;58.93;99436.16;109623;1251;66903;-73
2023/08/12 09:41:15;;;;;;;3.40;3.10;;;;;;;26.80;59.40;99434.42;109651;1251;60195;-73
2023/08/12 09:43:45;;;;;;;3.70;3.00;;;;;;;26.86;58.52;99435.30;109572;1251;65255;-73
2023/08/12 09:46:15;;;;;;;4.50;2.70;;;;;;;26.89;58.02;99437.30;109601;1251;58946;-73
2023/08/12 09:48:43;;;;;;;2.60;2.40;;;;;;;26.92;58.24;99436.91;109634;1251;59032;-72
2023/08/12 09:51:10;;;;;;;3.40;2.80;;;;;;;26.97;57.87;99438.46;109619;1251;65813;-71
2023/08/12 09:53:37;;;;;;;4.00;2.50;;;;;;;26.97;57.50;99438.34;109611;1251;59823;-71
2023/08/12 09:56:07;;;;;;;3.40;2.70;;;;;;;26.92;57.20;99430.16;109581;1251;62892;-71
2023/08/12 09:58:36;;;;;;;2.90;2.50;;;;;;;26.95;57.25;99428.38;109535;1251;58946;-71
2023/08/12 10:01:07;;;;;;;4.00;2.50;;;;;;;26.98;56.87;99425.84;109593;1251;58975;-71
2023/08/12 10:03:37;;;;;;;4.10;2.90;;;;;;;26.98;56.69;99421.92;109610;1251;65895;-72
2023/08/12 10:06:05;;;;;;;;;;;;;;;26.97;57.11;99418.05;109660;1250;61074;-70
2023/08/12 10:08:32;;;;;;;3.40;2.90;;;;;;;26.92;56.67;99417.05;109595;1251;64278;-69
2023/08/12 10:10:59;;;;;;;5.10;2.70;;;;;;;26.95;57.32;99417.95;109584;1251;59040;-69
2023/08/12 10:13:25;;;;;;;4.30;2.90;;;;;;;26.96;55.93;99415.94;109590;1251;59460;-70
2023/08/12 10:15:52;;;;;;;3.20;2.90;;;;;;;26.90;55.76;99410.38;109564;1255;64765;-69
2023/08/12 10:18:20;;;;;;;2.80;2.40;;;;;;;26.96;56.52;99413.46;109633;1251;60190;-72
2023/08/12 10:20:47;;;;;;;4.10;3.10;;;;;;;27.08;56.20;99410.19;109564;1251;64708;-72
2023/08/12 10:23:18;;;;;;;4.90;2.60;;;;;;;27.16;55.78;99406.67;109339;1251;59041;-72
2023/08/12 10:25:44;;;;;;;3.00;2.50;;;;;;;27.12;54.55;99408.02;109633;1251;58975;-72
2023/08/12 10:28:12;;;;;;;2.50;2.40;;;;;;;27.07;55.29;99408.23;109538;1251;65826;-73
2023/08/12 10:30:41;;;;;;;3.40;2.50;;;;;;;27.09;55.20;99407.67;109583;1251;59176;-73
2023/08/12 10:33:10;;;;;;;4.00;2.10;;;;;;;27.16;55.25;99401.89;109423;1251;64420;-73
2023/08/12 10:35:48;;;;;;;4.30;2.80;;;;;;;27.22;55.51;99399.88;109449;1251;59083;-72
2023/08/12 10:38:20;;;;;;;3.30;2.40;;;;;;;27.25;54.07;99397.66;109589;1251;59109;-73
2023/08/12 10:40:47;;;;;;;3.60;2.70;;;;;;;27.22;54.32;99394.98;109618;1251;65837;-72
2023/08/12 10:43:14;;;;;;;2.70;2.50;;;;;;;27.28;54.88;99396.23;109424;1251;60158;-73
2023/08/12 10:45:45;;;;;;;2.80;2.30;;;;;;;27.33;54.19;99392.73;109551;1251;64899;-73
2023/08/12 10:48:23;;;;;;;3.10;2.80;;;;;;;27.34;54.67;99389.75;109558;1251;58998;-73
2023/08/12 10:50:53;;;;;;;3.50;2.40;;;;;;;27.41;54.44;99389.08;109571;1251;59007;-73
2023/08/12 10:53:33;;;;;;;4.10;2.50;;;;;;;27.49;55.11;99390.73;109596;1251;67240;-73
2023/08/12 10:56:01;;;;;;;3.90;2.80;;;;;;;27.59;55.09;99388.49;109639;1251;58951;-72
2023/08/12 10:58:48;;;;;;;3.80;2.50;;;;;;;27.64;54.81;99388.77;109520;1251;65199;-72
2023/08/12 11:01:18;;;;;;;5.10;2.60;;;;;;;27.69;54.27;99391.20;109552;1251;58915;-72
2023/08/12 11:03:47;;;;;;;2.50;2.20;;;;;;;27.65;53.08;99386.89;109384;1251;60115;-73
2023/08/12 11:06:14;;;;;;;3.80;2.50;;;;;;;27.65;53.47;99385.83;109603;1251;66165;-74
2023/08/12 11:08:52;;;;;;;4.00;2.20;;;;;;;27.69;54.07;99380.04;109672;1251;59399;-74
2023/08/12 11:11:21;;;;;;;5.20;2.20;;;;;;;27.81;54.71;99374.58;109501;1251;64126;-73
2023/08/12 11:13:56;;;;;;;5.10;2.90;;;;;;;27.87;53.36;99375.20;109586;1251;58949;-74
2023/08/12 11:16:35;;;;;;;1.90;1.80;;;;;;;27.81;52.47;99374.49;109616;1251;58856;-73